AirNav   Everest Fuels
 
 1295 users online  

07KS Heape Field Airport
Augusta, Kansas, USA

GOING TO AUGUSTA?


FAA INFORMATION EFFECTIVE 05 DECEMBER 2019

Location

FAA Identifier: 07KS
Lat/Long: 37-44-03.0620N 096-56-12.1230W
37-44.051033N 096-56.202050W
37.7341839,-96.9367008
(estimated)
Elevation: 1321 ft. / 403 m (estimated)
Variation: 07E (1985)
From city: 3 miles NE of AUGUSTA, KS
Time zone: UTC -6 (UTC -5 during Daylight Saving Time)
Zip code: 67042

Airport Operations

Airport use: Private use. Permission required prior to landing
Activation date: 12/1980
Control tower: no
ARTCC: KANSAS CITY CENTER
FSS: WICHITA FLIGHT SERVICE STATION
Attendance: UNATNDD
Wind indicator: yes
Segmented circle: no

Airport Communications

WX AWOS-3P at EQA (6 nm NE): 120.875 (316-322-8095)
WX AWOS-3PT at 3AU (8 nm SW): 124.175 (316-733-6696)
WX AWOS-3 at 1K1 (9 nm W): 118.3 (316-530-6004)
WX AWOS-3PT at BEC (13 nm W): 119.45 (316-515-7116)
WX ASOS at AAO (14 nm W): 134.025 (316-636-2541)

Nearby radio navigation aids

VOR radial/distance  VOR name  Freq  Var
ICTr084/30.7WICHITA VORTAC113.8007E

 
NDB name  Hdg/Dist  Freq  Var  ID
NEWTON135/25.428106EEWK . .-- -.-

Airport Services

Runway Information

Runway 18/36

Dimensions: 2000 x 45 ft. / 610 x 14 m
Surface: turf
RUNWAY 18  RUNWAY 36
Traffic pattern: leftleft

Airport Ownership and Management from official FAA records

Ownership: Privately-owned
Owner: DARRELL L. HEAPE
RR 1, BOX 141
ELDORADO, KS 67042
Phone 316-775-7839
Manager: DARRELL L. HEAPE
RR 1, BOX 141
ELDORADO, KS 67042
Phone 316-775-7839

Airport Operational Statistics

Aircraft based on the field: 1
Single engine airplanes: 1
    

Additional Remarks

FOR CD CTC WICHITA APCH AT 316-350-1520.

Instrument Procedures

There are no published instrument procedures at 07KS.

Some nearby airports with instrument procedures:

KEQA - El Dorado/Captain Jack Thomas Memorial Airport (6 nm NE)
3AU - Augusta Municipal Airport (8 nm SW)
1K1 - Lloyd Stearman Field Airport (9 nm W)
KBEC - Beech Factory Airport (13 nm W)
KAAO - Colonel James Jabara Airport (14 nm W)
KCEA - Cessna Aircraft Field Airport (16 nm W)
KIAB - Mc Connell Air Force Base (17 nm SW)
 
Loc | Ops | Rwys | IFR | FBO | Links
Com | Nav | Svcs | Stats | Notes

Kansas City Aviation Department
 
Area around 07KS (Heape Field Airport)
 
Road maps at: MapQuest Bing Google
 
Aerial photo
No photo
 
Sectional chart

 
Airport distance calculator
Flying to Heape Field Airport? Find the distance to fly.

From to 07KS

Sunrise and sunset
Times for 05-Dec-2019
 Local
(UTC-6)
 Zulu
(UTC)
Morning civil twilight07:0013:00
Sunrise07:2913:29
Sunset17:0823:08
Evening civil twilight17:3723:37

Current date and time
Zulu (UTC)  05-Dec-2019 23:40:45
Local (UTC-6)  05-Dec-2019 17:40:45
 
METAR
KEQA 
6nm NE 
052315Z AUTO 00000KT 10SM CLR 14/02 A2987 RMK AO2
K3AU 
8nm SW 
052315Z AUTO 32004KT 10SM CLR 13/03 A2987 RMK AO2
K1K1 
9nm W 
052315Z AUTO 31003KT 10SM CLR 14/02 A2987 RMK AO2 T01360023
KAAO 
13nm W 
052254Z AUTO 30004KT 10SM CLR 14/03 A2986 RMK AO2 SLP115 T01390028
KBEC 
13nm W 
052315Z AUTO 34003KT 10SM CLR 15/03 A2986 RMK AO2 T01480025
KIAB 
17nm SW 
052156Z AUTO 00000KT 10SM SCT160 BKN180 17/02 A2981 RMK AO2 SLP096 T01650018 $
TAF
KIAB 
17nm SW 
051800Z 0518/0624 17009KT 9999 FEW150 QNH2978INS BECMG 0605/0606 35015KT 9999 FEW055 520853 QNH3000INS BECMG 0608/0609 35020G30KT 9000 BR FEW005 510053 QNH3011INS BECMG 0611/0612 36020G30KT 8000 BR OVC006 510063 QNH3021INS BECMG 0617/0618 01012G18KT 9999 NSW SCT014 QNH3033INS BECMG 0623/0624 VRB06KT 9999 SKC QNH3036INS TX13/0521Z TN01/0611Z
NOTAMs
Click for the latest NOTAMs
NOTAMs are issued by the DoD/FAA and will open in a separate window not controlled by AirNav.

 

 
 

Would you like to see your business listed on this page?

 If your business provides an interesting product or service to pilots, flight crews, aircraft, or users of the Heape Field Airport, you should consider listing it here.  To start the listing process, click on the button below
 
Add a business
 

Other Pages about Heape Field Airport

Update a link
 
Copyright © AirNav, LLC. All rights reserved. Privacy Policy  Contact